Погода Палмейрас-ди-Гоясна 2 недели

Гояс, Бразилия

30 мая-11 июня
  • 30мая
    Сегодня
    +14°
    +30°
    Ясно и безоблачно
    ВремяПогодаТемператураВлажностьДавлениеВетер, м/сВероятность осадков
    00:00Ясно и безоблачно+18°C75 %711 мм2.9 м/с5 %
    03:00Ясно и безоблачно+16°C84 %710 мм2.0 м/с5 %
    06:00Ясно и безоблачно+15°C91 %710 мм1.7 м/с5 %
    09:00Ясно и безоблачно+19°C69 %711 мм1.8 м/с5 %
    12:00Ясно и безоблачно+26°C48 %711 мм1.9 м/с5 %
    15:00Ясно и безоблачно+29°C40 %710 мм2.0 м/с5 %
    18:00Ясно и безоблачно+25°C50 %710 мм3.3 м/с5 %
    21:00Ясно и безоблачно+22°C59 %710 мм3.3 м/с5 %
  • 31мая
    Пятница
    +17°
    +31°
    Ясно и безоблачно
    ВремяПогодаТемператураВлажностьДавлениеВетер, м/сВероятность осадков
    00:00Ясно и безоблачно+19°C64 %710 мм2.8 м/с5 %
    03:00Ясно и безоблачно+16°C73 %709 мм1.7 м/с5 %
    06:00Ясно и безоблачно+15°C74 %709 мм2.0 м/с5 %
    09:00Ясно и безоблачно+20°C56 %712 мм2.2 м/с5 %
    12:00Ясно и безоблачно+27°C40 %711 мм2.6 м/с5 %
    15:00Ясно и безоблачно+31°C28 %710 мм1.0 м/с5 %
    18:00Пасмурно, сплошная облачность+26°C41 %709 мм1.8 м/с5 %
    21:00Практически безоблачно+23°C49 %710 мм1.8 м/с5 %
  • 01июня
    Суббота
    +19°
    +32°
    Ясно и безоблачно
    ВремяПогодаТемператураВлажностьДавлениеВетер, м/сВероятность осадков
    00:00Практически безоблачно+19°C60 %710 мм1.6 м/с5 %
    03:00Практически безоблачно+18°C64 %709 мм1.2 м/с5 %
    06:00Практически безоблачно+18°C71 %709 мм1.7 м/с5 %
    09:00Ясно и безоблачно+24°C53 %712 мм3.4 м/с5 %
    12:00Ясно и безоблачно+29°C33 %711 мм4.4 м/с5 %
    15:00Ясно и безоблачно+31°C28 %710 мм2.0 м/с5 %
    18:00Практически безоблачно+26°C40 %709 мм2.1 м/с5 %
    21:00Ясно и безоблачно+24°C43 %710 мм3.8 м/с5 %
  • 02июня
    Воскресенье
    +19°
    +32°
    Небольшая облачность
    ВремяПогодаТемператураВлажностьДавлениеВетер, м/сВероятность осадков
    00:00Небольшая облачность+23°C46 %710 мм3.6 м/с5 %
    03:00Ясно и безоблачно+21°C49 %709 мм3.4 м/с5 %
    06:00Ясно и безоблачно+20°C57 %710 мм3.8 м/с5 %
    09:00Ясно и безоблачно+24°C56 %712 мм4.4 м/с5 %
    12:00Ясно и безоблачно+29°C34 %711 мм3.6 м/с5 %
    15:00Небольшая облачность+32°C27 %710 мм1.1 м/с5 %
    18:00Ясно и безоблачно+26°C39 %710 мм1.9 м/с5 %
    21:00Практически безоблачно+23°C46 %710 мм2.0 м/с5 %
Мы используем cookies
Соглашаюсь